createdAt,value
2023-01-28T00:01:36.372Z,11.73
2023-01-28T00:04:04.045Z,12.53
2023-01-28T00:06:31.374Z,13.00
2023-01-28T00:08:58.701Z,12.07
2023-01-28T00:11:26.618Z,12.17
2023-01-28T00:13:54.947Z,10.93
2023-01-28T00:16:22.897Z,11.63
2023-01-28T00:18:50.221Z,12.70
2023-01-28T00:21:17.404Z,12.17
2023-01-28T00:23:54.623Z,11.33
2023-01-28T00:26:24.587Z,11.50
2023-01-28T00:28:51.905Z,11.70
2023-01-28T00:31:25.259Z,9.50
2023-01-28T00:33:56.246Z,11.57
2023-01-28T00:36:26.349Z,12.40
2023-01-28T00:39:00.209Z,11.70
2023-01-28T00:41:29.917Z,10.03
2023-01-28T00:43:59.314Z,11.10
2023-01-28T00:46:27.451Z,11.03
2023-01-28T00:48:54.882Z,10.97
2023-01-28T00:51:22.458Z,9.77
2023-01-28T00:53:50.144Z,7.17
2023-01-28T00:56:19.644Z,8.47
2023-01-28T00:58:47.558Z,9.50
2023-01-28T01:01:27.112Z,8.47
2023-01-28T01:04:02.928Z,10.13
2023-01-28T01:06:37.820Z,9.83
2023-01-28T01:09:08.787Z,9.97
2023-01-28T01:11:36.568Z,9.90
2023-01-28T01:14:05.494Z,8.57
2023-01-28T01:16:35.472Z,9.10
2023-01-28T01:19:02.962Z,10.82
2023-01-28T01:21:31.114Z,9.23
2023-01-28T01:23:58.578Z,9.87
2023-01-28T01:26:27.435Z,9.20
2023-01-28T01:28:58.302Z,9.67
2023-01-28T01:31:25.769Z,10.00
2023-01-28T01:33:53.701Z,8.83
2023-01-28T01:36:22.015Z,8.27
2023-01-28T01:38:54.882Z,8.53
2023-01-28T01:41:32.102Z,9.60
2023-01-28T01:44:04.983Z,8.57
2023-01-28T01:46:51.760Z,9.83
2023-01-28T01:49:28.702Z,8.77
2023-01-28T01:52:13.357Z,8.67
2023-01-28T01:54:44.543Z,7.53
2023-01-28T01:57:17.210Z,8.37
2023-01-28T01:59:44.776Z,9.07
2023-01-28T02:02:12.937Z,8.80
2023-01-28T02:04:44.784Z,9.07
2023-01-28T02:07:19.330Z,8.73
2023-01-28T02:09:46.617Z,10.50
2023-01-28T02:12:29.874Z,10.83
2023-01-28T02:15:22.094Z,9.83
2023-01-28T02:17:51.212Z,10.70
2023-01-28T02:20:28.073Z,10.80
2023-01-28T02:23:19.998Z,9.27
2023-01-28T02:26:39.594Z,8.50
2023-01-28T02:29:21.546Z,9.70
2023-01-28T02:32:03.711Z,8.67
2023-01-28T02:34:59.650Z,9.90
2023-01-28T02:37:48.530Z,10.00
2023-01-28T02:40:27.814Z,9.13
2023-01-28T02:45:51.273Z,8.65
2023-01-28T02:48:22.428Z,10.60
2023-01-28T02:53:47.436Z,10.03
2023-01-28T02:56:44.275Z,11.10
2023-01-28T02:59:36.935Z,9.40
2023-01-28T03:02:30.161Z,10.03
2023-01-28T03:05:11.974Z,11.00
2023-01-28T03:07:39.818Z,10.27
2023-01-28T03:10:15.984Z,9.73
2023-01-28T03:13:04.250Z,12.00
2023-01-28T03:16:08.970Z,10.73
2023-01-28T03:19:06.498Z,10.63
2023-01-28T03:21:59.301Z,10.20
2023-01-28T03:25:07.266Z,11.50
2023-01-28T03:28:08.557Z,10.83
2023-01-28T03:31:27.149Z,10.80
2023-01-28T03:34:17.460Z,10.52
2023-01-28T03:36:53.340Z,10.80
2023-01-28T03:39:41.321Z,10.27
2023-01-28T03:42:14.288Z,12.87
2023-01-28T03:45:17.414Z,10.97
2023-01-28T03:47:46.948Z,12.15
2023-01-28T03:50:14.234Z,12.37
2023-01-28T03:52:51.452Z,12.00
2023-01-28T03:55:29.680Z,13.43
2023-01-28T03:57:56.973Z,12.07
2023-01-28T04:00:24.378Z,11.57
2023-01-28T04:02:51.664Z,11.93
2023-01-28T04:05:21.680Z,10.97
2023-01-28T04:07:51.671Z,11.40
2023-01-28T04:10:26.511Z,10.87
2023-01-28T04:13:20.127Z,9.23
2023-01-28T04:15:47.855Z,10.43
2023-01-28T04:18:16.383Z,10.07
2023-01-28T04:20:43.661Z,13.13
2023-01-28T04:23:11.299Z,11.83
2023-01-28T04:25:38.540Z,11.80
2023-01-28T04:28:09.029Z,12.13
2023-01-28T04:30:36.390Z,10.63
2023-01-28T04:33:24.075Z,10.97
2023-01-28T04:35:51.329Z,13.37
2023-01-28T04:38:42.029Z,11.55
2023-01-28T04:41:24.866Z,10.87
2023-01-28T04:43:52.360Z,11.20
2023-01-28T04:46:55.275Z,9.83
2023-01-28T04:49:42.459Z,12.70
2023-01-28T04:52:26.889Z,12.10
2023-01-28T04:55:05.663Z,12.30
2023-01-28T04:57:33.537Z,11.20
2023-01-28T05:00:01.458Z,12.40
2023-01-28T05:02:28.837Z,13.30
2023-01-28T05:04:56.039Z,11.37
2023-01-28T05:07:37.634Z,11.70
2023-01-28T05:10:05.708Z,12.50
2023-01-28T05:12:34.189Z,12.20
2023-01-28T05:15:05.264Z,11.90
2023-01-28T05:17:32.584Z,10.23
2023-01-28T05:19:59.841Z,11.97
2023-01-28T05:22:29.197Z,11.47
2023-01-28T05:25:28.959Z,12.03
2023-01-28T05:27:57.302Z,12.57
2023-01-28T05:30:26.056Z,11.70
2023-01-28T05:32:56.990Z,11.73
2023-01-28T05:35:24.364Z,12.00
2023-01-28T05:37:52.127Z,12.37
2023-01-28T05:40:19.960Z,10.77
2023-01-28T05:42:47.307Z,11.60
2023-01-28T05:45:26.965Z,12.30
2023-01-28T05:48:04.130Z,12.93
2023-01-28T05:50:43.229Z,11.43
2023-01-28T05:53:20.586Z,11.03
2023-01-28T05:55:50.740Z,13.07
2023-01-28T05:58:18.541Z,11.07
2023-01-28T06:00:46.089Z,12.73
2023-01-28T06:03:14.479Z,12.77
2023-01-28T06:05:41.872Z,12.40
2023-01-28T06:08:09.159Z,12.73
2023-01-28T06:10:37.269Z,13.87
2023-01-28T06:13:04.891Z,12.90
2023-01-28T06:15:37.848Z,12.00
2023-01-28T06:18:24.365Z,13.50
2023-01-28T06:20:53.208Z,13.60
2023-01-28T06:23:20.430Z,12.23
2023-01-28T06:25:47.756Z,12.33
2023-01-28T06:28:16.511Z,12.63
2023-01-28T06:30:43.821Z,14.37
2023-01-28T06:33:11.089Z,12.47
2023-01-28T06:35:38.278Z,13.53
2023-01-28T06:38:05.558Z,13.63
2023-01-28T06:40:32.834Z,12.40
2023-01-28T06:43:00.136Z,11.87
2023-01-28T06:45:27.377Z,13.87
2023-01-28T06:47:54.622Z,13.63
2023-01-28T06:50:21.872Z,11.60
2023-01-28T06:52:49.111Z,12.73
2023-01-28T06:55:19.134Z,12.97
2023-01-28T06:57:46.416Z,11.40
2023-01-28T07:00:16.887Z,10.93
2023-01-28T07:05:11.976Z,11.13
2023-01-28T07:07:41.724Z,10.57
2023-01-28T07:10:11.193Z,12.27
2023-01-28T07:12:38.589Z,12.60
2023-01-28T07:15:06.806Z,13.33
2023-01-28T07:17:34.295Z,12.70
2023-01-28T07:20:01.567Z,13.50
2023-01-28T07:22:28.859Z,11.87
2023-01-28T07:24:55.983Z,13.50
2023-01-28T07:27:23.256Z,12.80
2023-01-28T07:29:50.427Z,13.93
2023-01-28T07:32:17.805Z,12.90
2023-01-28T07:34:45.127Z,12.10
2023-01-28T07:37:12.358Z,12.60
2023-01-28T07:39:39.602Z,12.13
2023-01-28T07:42:07.015Z,12.83
2023-01-28T07:44:39.150Z,12.80
2023-01-28T07:47:07.070Z,13.87
2023-01-28T07:49:34.944Z,13.77
2023-01-28T07:52:02.340Z,13.10
2023-01-28T07:54:29.976Z,12.80
2023-01-28T07:57:02.522Z,12.57
2023-01-28T07:59:29.875Z,11.87
2023-01-28T08:01:57.129Z,12.47
2023-01-28T08:04:24.373Z,11.77
2023-01-28T08:06:52.391Z,11.33
2023-01-28T08:09:19.719Z,12.93
2023-01-28T08:11:46.995Z,11.83
2023-01-28T08:14:14.436Z,11.43
2023-01-28T08:16:41.876Z,13.73
2023-01-28T08:19:09.168Z,11.93
2023-01-28T08:21:36.479Z,11.07
2023-01-28T08:24:06.610Z,11.83
2023-01-28T08:26:33.854Z,12.05
2023-01-28T08:29:01.091Z,12.13
2023-01-28T08:31:29.636Z,12.63
2023-01-28T08:33:56.854Z,12.37
2023-01-28T08:36:24.162Z,11.83
2023-01-28T08:38:54.911Z,11.60
2023-01-28T08:43:50.386Z,11.00
2023-01-28T08:46:17.609Z,12.00
2023-01-28T08:48:44.992Z,11.00
2023-01-28T08:51:12.217Z,11.03
2023-01-28T08:53:39.685Z,11.17
2023-01-28T08:56:07.319Z,13.87
2023-01-28T08:58:34.510Z,13.10
2023-01-28T09:01:07.088Z,12.20
2023-01-28T09:03:36.134Z,14.27
2023-01-28T09:06:04.618Z,12.23
2023-01-28T09:08:31.890Z,11.03
2023-01-28T09:11:00.292Z,11.07
2023-01-28T09:13:28.544Z,11.57
2023-01-28T09:15:58.386Z,12.73
2023-01-28T09:18:25.654Z,12.60
2023-01-28T09:20:52.878Z,11.73
2023-01-28T09:23:20.094Z,12.37
2023-01-28T09:25:47.274Z,11.57
2023-01-28T09:28:14.502Z,10.97
2023-01-28T09:30:41.775Z,11.60
2023-01-28T09:33:09.297Z,13.10
2023-01-28T09:35:37.268Z,12.93
2023-01-28T09:38:04.852Z,12.00
2023-01-28T09:40:42.054Z,11.07
2023-01-28T09:43:51.441Z,11.43
2023-01-28T09:46:18.863Z,10.87
2023-01-28T09:48:52.942Z,11.23
2023-01-28T09:51:39.024Z,11.60
2023-01-28T09:54:39.341Z,11.23
2023-01-28T09:57:39.240Z,10.85
2023-01-28T10:00:59.204Z,13.40
2023-01-28T10:03:53.403Z,10.60
2023-01-28T10:07:09.755Z,12.53
2023-01-28T10:09:51.065Z,13.23
2023-01-28T10:12:42.214Z,12.57
2023-01-28T10:15:43.476Z,11.37
2023-01-28T10:18:17.631Z,11.77
2023-01-28T10:20:57.989Z,11.83
2023-01-28T10:23:49.393Z,12.00
2023-01-28T10:26:40.577Z,10.40
2023-01-28T10:29:31.575Z,11.97
2023-01-28T10:34:53.841Z,12.33
2023-01-28T10:37:22.175Z,11.53
2023-01-28T10:39:49.544Z,11.40
2023-01-28T10:42:38.693Z,11.27
2023-01-28T10:45:24.902Z,11.57
2023-01-28T10:48:23.097Z,11.77
2023-01-28T10:51:05.832Z,10.67
2023-01-28T10:53:44.530Z,9.67
2023-01-28T10:56:37.784Z,11.43
2023-01-28T10:59:19.680Z,10.97
2023-01-28T11:01:52.741Z,11.83
2023-01-28T11:04:34.713Z,10.77
2023-01-28T11:07:20.091Z,11.03
2023-01-28T11:09:50.647Z,12.03
2023-01-28T11:12:28.641Z,10.57
2023-01-28T11:15:03.519Z,9.27
2023-01-28T11:17:36.100Z,11.37
2023-01-28T11:20:21.025Z,11.83
2023-01-28T11:22:49.996Z,11.53
2023-01-28T11:25:26.465Z,11.20
2023-01-28T11:27:55.150Z,11.90
2023-01-28T11:30:34.629Z,11.53
2023-01-28T11:33:46.340Z,12.33
2023-01-28T11:36:34.744Z,11.27
2023-01-28T11:39:26.054Z,12.90
2023-01-28T11:41:54.111Z,12.10
2023-01-28T11:44:25.292Z,12.07
2023-01-28T11:47:02.989Z,11.67
2023-01-28T11:50:13.242Z,12.67
2023-01-28T11:53:29.001Z,12.30
2023-01-28T11:56:26.406Z,11.00
2023-01-28T11:59:37.785Z,11.70
2023-01-28T12:02:44.758Z,10.47
2023-01-28T12:05:32.647Z,11.17
2023-01-28T12:08:28.786Z,12.10
2023-01-28T12:11:46.641Z,11.70
2023-01-28T12:14:35.879Z,9.57
2023-01-28T12:17:18.216Z,11.10
2023-01-28T12:19:59.973Z,10.47
2023-01-28T12:22:35.518Z,10.63
2023-01-28T12:25:40.377Z,10.23
2023-01-28T12:28:52.868Z,11.57
2023-01-28T12:31:35.105Z,9.77
2023-01-28T12:34:59.623Z,10.13
2023-01-28T12:37:50.886Z,11.90
2023-01-28T12:40:58.643Z,12.10
2023-01-28T12:43:49.596Z,12.80
2023-01-28T12:49:53.072Z,12.40
2023-01-28T12:52:40.296Z,10.43
2023-01-28T12:55:35.555Z,11.17
2023-01-28T12:58:06.423Z,10.97
2023-01-28T13:00:37.211Z,11.23
2023-01-28T13:06:25.329Z,12.00
2023-01-28T13:09:01.478Z,11.47
2023-01-28T13:11:36.468Z,10.10
2023-01-28T13:14:05.725Z,12.03
2023-01-28T13:16:38.304Z,11.03
2023-01-28T13:19:09.697Z,12.17
2023-01-28T13:21:48.686Z,11.17
2023-01-28T13:24:16.262Z,11.30
2023-01-28T13:26:57.746Z,11.47
2023-01-28T13:29:24.861Z,10.60
2023-01-28T13:31:55.981Z,11.40
2023-01-28T13:34:40.698Z,13.20
2023-01-28T13:37:36.967Z,12.40
2023-01-28T13:40:22.699Z,12.60
2023-01-28T13:43:28.858Z,12.30
2023-01-28T13:46:07.654Z,14.00
2023-01-28T13:48:52.170Z,11.30
2023-01-28T13:51:32.945Z,11.53
2023-01-28T13:54:19.229Z,10.95
2023-01-28T13:57:02.253Z,12.33
2023-01-28T14:00:13.231Z,12.37
2023-01-28T14:06:40.208Z,12.10
2023-01-28T14:09:22.178Z,12.75
2023-01-28T14:12:24.745Z,12.83
2023-01-28T14:15:49.462Z,16.53
2023-01-28T14:18:29.290Z,11.50
2023-01-28T14:21:01.054Z,14.17
2023-01-28T14:23:32.083Z,14.33
2023-01-28T14:26:13.649Z,12.53
2023-01-28T14:29:19.730Z,14.10
2023-01-28T14:31:47.960Z,13.77
2023-01-28T14:34:29.692Z,13.03
2023-01-28T14:37:13.544Z,13.57
2023-01-28T14:40:00.232Z,14.77
2023-01-28T14:42:33.115Z,14.70
2023-01-28T14:45:23.497Z,14.70
2023-01-28T14:48:31.515Z,13.27
2023-01-28T14:51:10.499Z,14.03
2023-01-28T14:54:05.372Z,14.50
2023-01-28T14:56:55.723Z,13.03
2023-01-28T14:59:49.779Z,12.65
2023-01-28T15:02:26.962Z,14.37
2023-01-28T15:04:54.754Z,13.97
2023-01-28T15:07:27.668Z,13.73
2023-01-28T15:10:05.261Z,13.27
2023-01-28T15:12:40.086Z,13.70
2023-01-28T15:15:30.578Z,14.07
2023-01-28T15:19:00.431Z,12.98
2023-01-28T15:21:31.024Z,12.97
2023-01-28T15:24:03.306Z,14.23
2023-01-28T15:26:35.009Z,14.83
2023-01-28T15:29:02.353Z,13.90
2023-01-28T15:31:33.872Z,16.27
2023-01-28T15:34:17.974Z,16.17
2023-01-28T15:36:49.732Z,13.70
2023-01-28T15:39:23.567Z,14.73
2023-01-28T15:42:06.812Z,14.10
2023-01-28T15:44:44.172Z,14.87
2023-01-28T15:47:33.982Z,16.27
2023-01-28T15:50:06.839Z,15.53
2023-01-28T15:52:41.070Z,14.80
2023-01-28T15:55:40.905Z,15.23
2023-01-28T15:58:21.025Z,16.17
2023-01-28T16:00:49.438Z,14.57
2023-01-28T16:03:23.484Z,13.63
2023-01-28T16:06:09.484Z,15.40
2023-01-28T16:08:58.970Z,16.00
2023-01-28T16:11:44.828Z,14.93
2023-01-28T16:14:37.538Z,16.20
2023-01-28T16:17:05.446Z,15.33
2023-01-28T16:19:46.818Z,17.20
2023-01-28T16:22:39.560Z,16.30
2023-01-28T16:25:21.763Z,17.77
2023-01-28T16:27:49.746Z,17.87
2023-01-28T16:30:18.243Z,16.50
2023-01-28T16:32:46.029Z,17.17
2023-01-28T16:35:20.854Z,16.90
2023-01-28T16:37:49.802Z,18.27
2023-01-28T16:40:23.671Z,16.37
2023-01-28T16:42:55.956Z,18.37
2023-01-28T16:45:26.742Z,18.00
2023-01-28T16:50:23.044Z,18.83
2023-01-28T16:52:53.736Z,17.83
2023-01-28T16:55:22.632Z,18.15
2023-01-28T16:57:53.561Z,17.60
2023-01-28T17:00:26.619Z,18.83
2023-01-28T17:02:54.964Z,18.87
2023-01-28T17:05:23.471Z,18.27
2023-01-28T17:07:51.117Z,20.70
2023-01-28T17:10:20.613Z,20.40
2023-01-28T17:12:54.585Z,20.10
2023-01-28T17:15:21.936Z,20.10
2023-01-28T17:17:50.738Z,19.10
2023-01-28T17:20:18.161Z,19.13
2023-01-28T17:22:45.866Z,19.00
2023-01-28T17:25:16.609Z,17.20
2023-01-28T17:27:44.207Z,18.77
2023-01-28T17:30:12.181Z,17.00
2023-01-28T17:32:39.383Z,17.37
2023-01-28T17:35:07.220Z,17.97
2023-01-28T17:37:34.465Z,17.97
2023-01-28T17:40:03.081Z,18.53
2023-01-28T17:42:31.227Z,19.97
2023-01-28T17:45:03.099Z,19.60
2023-01-28T17:47:31.140Z,19.13
2023-01-28T17:49:58.692Z,20.27
2023-01-28T17:52:26.351Z,19.37
2023-01-28T17:54:54.017Z,19.53
2023-01-28T17:57:24.084Z,21.83
2023-01-28T17:59:51.469Z,20.13
2023-01-28T18:02:18.820Z,19.33
2023-01-28T18:04:46.091Z,18.63
2023-01-28T18:07:13.537Z,20.47
2023-01-28T18:09:43.979Z,21.03
2023-01-28T18:12:14.558Z,19.48
2023-01-28T18:14:42.081Z,19.52
2023-01-28T18:17:11.149Z,19.37
2023-01-28T18:19:38.655Z,22.23
2023-01-28T18:22:08.221Z,23.93
2023-01-28T18:24:35.492Z,22.17
2023-01-28T18:27:04.275Z,23.10
2023-01-28T18:29:31.971Z,24.90
2023-01-28T18:31:59.779Z,23.00
2023-01-28T18:34:31.654Z,22.23
2023-01-28T18:36:59.626Z,25.17
2023-01-28T18:39:31.542Z,23.77
2023-01-28T18:42:00.221Z,22.23
2023-01-28T18:44:33.233Z,22.83
2023-01-28T18:47:00.651Z,22.40
2023-01-28T18:49:27.932Z,23.87
2023-01-28T18:51:55.190Z,22.00
2023-01-28T18:54:23.438Z,22.63
2023-01-28T18:56:50.824Z,24.63
2023-01-28T18:59:18.196Z,26.70
2023-01-28T19:01:48.015Z,24.53
2023-01-28T19:04:16.433Z,27.30
2023-01-28T19:06:43.999Z,24.10
2023-01-28T19:09:14.509Z,26.43
2023-01-28T19:11:42.866Z,27.05
2023-01-28T19:14:14.584Z,27.07
2023-01-28T19:16:44.276Z,25.20
2023-01-28T19:19:12.242Z,27.40
2023-01-28T19:21:39.737Z,27.37
2023-01-28T19:24:10.809Z,27.47
2023-01-28T19:26:41.660Z,28.30
2023-01-28T19:31:39.212Z,25.00
2023-01-28T19:34:06.945Z,27.73
2023-01-28T19:36:34.846Z,27.07
2023-01-28T19:39:07.144Z,26.13
2023-01-28T19:41:35.330Z,27.40
2023-01-28T19:44:05.568Z,27.10
2023-01-28T19:46:36.159Z,28.35
2023-01-28T19:49:06.433Z,27.95
2023-01-28T19:51:33.974Z,27.00
2023-01-28T19:54:01.481Z,27.10
2023-01-28T19:56:30.010Z,28.63
2023-01-28T19:58:57.471Z,27.53
2023-01-28T20:01:30.157Z,25.10
2023-01-28T20:04:00.571Z,27.43
2023-01-28T20:06:33.471Z,26.02
2023-01-28T20:09:15.468Z,25.30
2023-01-28T20:11:43.070Z,26.40
2023-01-28T20:14:10.497Z,25.47
2023-01-28T20:16:40.265Z,27.13
2023-01-28T20:19:14.498Z,26.20
2023-01-28T20:21:42.240Z,26.27
2023-01-28T20:24:12.499Z,25.23
2023-01-28T20:26:42.302Z,27.40
2023-01-28T20:29:18.080Z,27.47
2023-01-28T20:31:46.017Z,24.90
2023-01-28T20:34:20.127Z,25.00
2023-01-28T20:36:47.654Z,24.75
2023-01-28T20:39:15.045Z,25.17
2023-01-28T20:41:42.325Z,24.67
2023-01-28T20:44:09.627Z,23.80
2023-01-28T20:46:38.591Z,25.20
2023-01-28T20:49:10.251Z,21.33
2023-01-28T20:51:38.343Z,22.53
2023-01-28T20:54:06.246Z,23.93
2023-01-28T20:56:33.876Z,22.87
2023-01-28T20:59:04.733Z,22.37
2023-01-28T21:01:35.388Z,25.13
2023-01-28T21:06:31.965Z,20.47
2023-01-28T21:08:59.817Z,22.63
2023-01-28T21:11:27.727Z,22.83
2023-01-28T21:13:55.703Z,22.60
2023-01-28T21:16:24.313Z,24.30
2023-01-28T21:18:52.206Z,23.03
2023-01-28T21:21:26.374Z,20.47
2023-01-28T21:23:58.108Z,22.13
2023-01-28T21:26:26.742Z,22.57
2023-01-28T21:28:56.998Z,23.90
2023-01-28T21:31:26.612Z,21.95
2023-01-28T21:33:56.921Z,21.07
2023-01-28T21:36:26.080Z,21.75
2023-01-28T21:38:59.969Z,19.57
2023-01-28T21:41:28.083Z,20.63
2023-01-28T21:43:57.658Z,18.97
2023-01-28T21:46:34.289Z,16.93
2023-01-28T21:49:04.157Z,20.90
2023-01-28T21:51:36.570Z,18.43
2023-01-28T21:54:12.983Z,17.13
2023-01-28T21:56:46.424Z,19.23
2023-01-28T21:59:30.865Z,17.87
2023-01-28T22:02:11.069Z,17.73
2023-01-28T22:04:46.744Z,16.20
2023-01-28T22:07:18.283Z,15.67
2023-01-28T22:09:47.128Z,11.67
2023-01-28T22:12:15.502Z,10.63
2023-01-28T22:14:43.632Z,10.07
2023-01-28T22:17:12.038Z,9.30
2023-01-28T22:19:39.974Z,9.73
2023-01-28T22:22:07.240Z,9.63
2023-01-28T22:24:34.644Z,11.00
2023-01-28T22:27:06.394Z,10.03
2023-01-28T22:29:33.605Z,9.80
2023-01-28T22:32:04.222Z,10.10
2023-01-28T22:34:31.783Z,10.20
2023-01-28T22:36:59.193Z,10.53
2023-01-28T22:39:26.435Z,10.63
2023-01-28T22:41:53.660Z,17.07
2023-01-28T22:44:20.977Z,17.17
2023-01-28T22:46:48.393Z,16.80
2023-01-28T22:49:15.616Z,18.03
2023-01-28T22:51:43.031Z,18.50
2023-01-28T22:54:12.272Z,17.97
2023-01-28T22:56:40.242Z,19.20
2023-01-28T22:59:07.572Z,17.30
2023-01-28T23:01:35.945Z,19.07
2023-01-28T23:04:03.938Z,17.83
2023-01-28T23:06:31.747Z,16.43
2023-01-28T23:08:59.200Z,15.37
2023-01-28T23:11:29.174Z,14.47
2023-01-28T23:14:18.076Z,14.88
2023-01-28T23:17:04.154Z,13.53
2023-01-28T23:19:50.497Z,13.67
2023-01-28T23:22:46.658Z,13.77
2023-01-28T23:25:14.291Z,13.93
2023-01-28T23:27:42.418Z,13.23
2023-01-28T23:30:11.678Z,12.60
2023-01-28T23:32:47.125Z,13.73
2023-01-28T23:35:14.965Z,12.07
2023-01-28T23:37:42.215Z,11.60
2023-01-28T23:40:12.658Z,11.67
2023-01-28T23:42:39.946Z,10.02
2023-01-28T23:45:08.338Z,10.73
2023-01-28T23:47:35.518Z,9.17
2023-01-28T23:50:03.043Z,9.47
2023-01-28T23:52:30.288Z,9.60
2023-01-28T23:54:57.514Z,9.23
2023-01-28T23:57:24.807Z,8.93
2023-01-28T23:59:52.015Z,8.73
